createdAt,value
2023-02-17T00:01:29.129Z,16.40
2023-02-17T00:03:57.987Z,15.50
2023-02-17T00:06:28.128Z,17.10
2023-02-17T00:08:58.327Z,17.07
2023-02-17T00:11:26.905Z,16.70
2023-02-17T00:13:56.434Z,13.47
2023-02-17T00:16:27.219Z,17.40
2023-02-17T00:18:57.547Z,14.30
2023-02-17T00:21:28.439Z,15.20
2023-02-17T00:23:58.429Z,16.13
2023-02-17T00:26:26.431Z,14.40
2023-02-17T00:28:54.807Z,15.03
2023-02-17T00:31:24.393Z,14.60
2023-02-17T00:33:55.967Z,15.43
2023-02-17T00:36:25.128Z,16.03
2023-02-17T00:38:55.241Z,16.23
2023-02-17T00:41:25.692Z,15.27
2023-02-17T00:43:53.710Z,15.20
2023-02-17T00:46:22.129Z,15.97
2023-02-17T00:48:50.500Z,13.90
2023-02-17T00:51:18.790Z,16.23
2023-02-17T00:53:46.785Z,16.10
2023-02-17T00:56:15.530Z,16.73
2023-02-17T00:58:45.764Z,15.00
2023-02-17T01:01:13.889Z,16.87
2023-02-17T01:03:42.565Z,15.67
2023-02-17T01:06:24.496Z,16.43
2023-02-17T01:08:52.890Z,14.73
2023-02-17T01:11:22.142Z,16.97
2023-02-17T01:13:51.999Z,15.17
2023-02-17T01:16:22.932Z,14.87
2023-02-17T01:18:50.831Z,16.13
2023-02-17T01:21:20.078Z,15.60
2023-02-17T01:23:50.579Z,15.00
2023-02-17T01:26:20.043Z,15.17
2023-02-17T01:28:48.242Z,16.17
2023-02-17T01:31:18.336Z,15.13
2023-02-17T01:33:46.969Z,15.50
2023-02-17T01:36:16.545Z,15.77
2023-02-17T01:38:46.523Z,15.03
2023-02-17T01:41:16.448Z,15.03
2023-02-17T01:43:44.887Z,15.67
2023-02-17T01:46:12.835Z,13.67
2023-02-17T01:48:46.023Z,14.67
2023-02-17T01:51:20.091Z,14.53
2023-02-17T01:53:53.203Z,13.73
2023-02-17T01:56:21.789Z,13.00
2023-02-17T01:58:55.287Z,14.33
2023-02-17T02:01:23.412Z,13.33
2023-02-17T02:03:53.573Z,14.10
2023-02-17T02:06:25.031Z,13.23
2023-02-17T02:08:57.931Z,13.07
2023-02-17T02:11:26.007Z,13.37
2023-02-17T02:13:54.240Z,12.53
2023-02-17T02:16:28.446Z,12.83
2023-02-17T02:19:05.780Z,13.17
2023-02-17T02:22:09.296Z,12.20
2023-02-17T02:24:49.923Z,11.53
2023-02-17T02:27:42.506Z,11.63
2023-02-17T02:30:29.433Z,11.70
2023-02-17T02:33:07.375Z,11.53
2023-02-17T02:35:46.464Z,10.70
2023-02-17T02:38:19.430Z,11.37
2023-02-17T02:40:51.318Z,8.03
2023-02-17T02:43:19.966Z,10.43
2023-02-17T02:45:48.361Z,9.67
2023-02-17T02:48:17.567Z,11.13
2023-02-17T02:51:02.899Z,7.90
2023-02-17T02:53:46.184Z,9.50
2023-02-17T02:56:24.262Z,10.07
2023-02-17T02:59:01.661Z,9.53
2023-02-17T03:01:39.062Z,10.33
2023-02-17T03:04:14.462Z,9.57
2023-02-17T03:06:49.446Z,9.97
2023-02-17T03:09:22.562Z,11.00
2023-02-17T03:11:51.653Z,9.90
2023-02-17T03:14:22.130Z,9.93
2023-02-17T03:16:51.246Z,9.73
2023-02-17T03:19:23.808Z,9.87
2023-02-17T03:21:56.472Z,10.60
2023-02-17T03:24:24.867Z,10.77
2023-02-17T03:26:52.836Z,9.80
2023-02-17T03:29:20.683Z,9.93
2023-02-17T03:31:48.860Z,9.43
2023-02-17T03:34:16.715Z,10.03
2023-02-17T03:36:45.977Z,10.10
2023-02-17T03:39:14.017Z,10.97
2023-02-17T03:41:41.848Z,9.27
2023-02-17T03:44:09.682Z,10.87
2023-02-17T03:46:40.287Z,10.70
2023-02-17T03:49:08.171Z,10.53
2023-02-17T03:51:36.015Z,10.60
2023-02-17T03:54:05.463Z,11.40
2023-02-17T03:56:33.671Z,9.67
2023-02-17T03:59:01.545Z,8.03
2023-02-17T04:01:29.593Z,10.47
2023-02-17T04:03:57.660Z,11.47
2023-02-17T04:06:25.567Z,11.20
2023-02-17T04:08:53.734Z,9.97
2023-02-17T04:11:22.963Z,10.80
2023-02-17T04:13:50.835Z,10.17
2023-02-17T04:16:18.995Z,10.40
2023-02-17T04:18:46.847Z,10.70
2023-02-17T04:21:14.838Z,11.90
2023-02-17T04:23:42.936Z,11.33
2023-02-17T04:26:10.781Z,11.33
2023-02-17T04:28:41.556Z,10.80
2023-02-17T04:31:10.465Z,12.23
2023-02-17T04:33:39.025Z,12.63
2023-02-17T04:36:07.695Z,11.40
2023-02-17T04:38:36.504Z,12.10
2023-02-17T04:41:05.104Z,10.73
2023-02-17T04:43:33.415Z,10.97
2023-02-17T04:46:03.039Z,11.57
2023-02-17T04:48:30.991Z,11.83
2023-02-17T04:50:58.852Z,12.37
2023-02-17T04:53:26.973Z,11.53
2023-02-17T04:55:54.847Z,12.30
2023-02-17T04:58:23.402Z,12.50
2023-02-17T05:00:52.296Z,12.67
2023-02-17T05:03:21.967Z,13.13
2023-02-17T05:05:50.861Z,11.83
2023-02-17T05:08:18.975Z,11.90
2023-02-17T05:10:46.821Z,12.63
2023-02-17T05:13:14.677Z,12.57
2023-02-17T05:15:44.595Z,12.83
2023-02-17T05:18:12.705Z,13.30
2023-02-17T05:20:42.029Z,12.27
2023-02-17T05:23:10.058Z,13.87
2023-02-17T05:25:37.900Z,12.63
2023-02-17T05:28:05.798Z,13.83
2023-02-17T05:30:33.814Z,12.87
2023-02-17T05:33:01.947Z,13.73
2023-02-17T05:35:29.907Z,12.67
2023-02-17T05:37:59.225Z,13.10
2023-02-17T05:40:27.074Z,13.70
2023-02-17T05:42:55.032Z,14.27
2023-02-17T05:45:22.993Z,14.90
2023-02-17T05:47:50.821Z,14.37
2023-02-17T05:50:18.871Z,14.55
2023-02-17T05:52:46.790Z,15.37
2023-02-17T05:55:16.112Z,12.10
2023-02-17T05:57:44.144Z,13.20
2023-02-17T06:00:13.321Z,14.27
2023-02-17T06:02:41.210Z,15.23
2023-02-17T06:05:09.967Z,13.73
2023-02-17T06:07:37.983Z,13.90
2023-02-17T06:10:06.865Z,15.00
2023-02-17T06:12:36.165Z,14.77
2023-02-17T06:15:04.687Z,14.10
2023-02-17T06:17:32.570Z,13.87
2023-02-17T06:20:00.527Z,13.43
2023-02-17T06:22:28.463Z,14.27
2023-02-17T06:24:56.327Z,12.73
2023-02-17T06:27:24.290Z,14.00
2023-02-17T06:29:53.546Z,12.67
2023-02-17T06:32:21.365Z,13.97
2023-02-17T06:34:49.349Z,13.80
2023-02-17T06:37:17.319Z,14.20
2023-02-17T06:39:45.155Z,12.97
2023-02-17T06:42:13.102Z,12.60
2023-02-17T06:44:40.990Z,11.30
2023-02-17T06:47:10.249Z,12.47
2023-02-17T06:49:40.672Z,12.43
2023-02-17T06:52:08.923Z,11.17
2023-02-17T06:54:36.775Z,11.87
2023-02-17T06:57:04.997Z,12.40
2023-02-17T06:59:33.877Z,11.53
2023-02-17T07:02:02.555Z,12.77
2023-02-17T07:04:32.193Z,13.40
2023-02-17T07:07:00.201Z,12.70
2023-02-17T07:09:28.123Z,10.93
2023-02-17T07:11:57.552Z,12.53
2023-02-17T07:14:28.166Z,12.50
2023-02-17T07:16:56.252Z,12.00
2023-02-17T07:19:24.174Z,12.30
2023-02-17T07:21:53.732Z,12.00
2023-02-17T07:24:21.599Z,12.20
2023-02-17T07:26:50.034Z,11.07
2023-02-17T07:29:18.038Z,10.83
2023-02-17T07:31:46.060Z,10.80
2023-02-17T07:34:13.923Z,11.07
2023-02-17T07:36:41.972Z,10.20
2023-02-17T07:39:11.200Z,10.20
2023-02-17T07:41:39.074Z,11.23
2023-02-17T07:44:07.095Z,10.37
2023-02-17T07:46:34.909Z,9.73
2023-02-17T07:49:02.863Z,9.52
2023-02-17T07:51:30.934Z,9.77
2023-02-17T07:53:58.898Z,9.97
2023-02-17T07:56:30.867Z,9.48
2023-02-17T07:58:58.874Z,9.45
2023-02-17T08:01:26.954Z,9.23
2023-02-17T08:03:55.421Z,9.23
2023-02-17T08:06:25.584Z,8.48
2023-02-17T08:09:11.792Z,8.63
2023-02-17T08:12:05.276Z,8.48
2023-02-17T08:14:33.518Z,8.10
2023-02-17T08:17:01.686Z,8.38
2023-02-17T08:19:42.861Z,7.88
2023-02-17T08:22:14.863Z,8.27
2023-02-17T08:24:42.826Z,7.85
2023-02-17T08:27:12.230Z,7.72
2023-02-17T08:29:40.281Z,7.47
2023-02-17T08:32:08.613Z,6.93
2023-02-17T08:34:36.667Z,8.15
2023-02-17T08:37:06.715Z,7.40
2023-02-17T08:39:36.193Z,7.20
2023-02-17T08:42:05.119Z,7.40
2023-02-17T08:44:36.016Z,7.70
2023-02-17T08:47:05.593Z,7.68
2023-02-17T08:49:33.886Z,7.15
2023-02-17T08:52:01.821Z,7.65
2023-02-17T08:54:32.646Z,7.72
2023-02-17T08:57:01.026Z,7.20
2023-02-17T08:59:29.090Z,7.68
2023-02-17T09:01:58.856Z,7.20
2023-02-17T09:04:26.864Z,8.07
2023-02-17T09:06:57.210Z,6.95
2023-02-17T09:09:28.972Z,7.47
2023-02-17T09:11:58.917Z,6.40
2023-02-17T09:14:27.226Z,7.15
2023-02-17T09:16:56.607Z,7.97
2023-02-17T09:19:26.959Z,7.15
2023-02-17T09:21:55.107Z,7.38
2023-02-17T09:24:23.185Z,7.65
2023-02-17T09:26:51.266Z,7.30
2023-02-17T09:29:19.061Z,7.68
2023-02-17T09:31:47.029Z,7.60
2023-02-17T09:34:15.774Z,7.57
2023-02-17T09:36:45.380Z,7.00
2023-02-17T09:39:15.085Z,7.70
2023-02-17T09:41:47.363Z,7.65
2023-02-17T09:44:21.917Z,7.65
2023-02-17T09:47:02.060Z,7.60
2023-02-17T09:49:36.475Z,7.55
2023-02-17T09:52:11.858Z,6.47
2023-02-17T09:54:45.877Z,8.57
2023-02-17T09:57:19.854Z,7.88
2023-02-17T09:59:51.881Z,8.07
2023-02-17T10:02:26.374Z,7.63
2023-02-17T10:04:57.589Z,7.88
2023-02-17T10:07:34.026Z,7.22
2023-02-17T10:10:08.237Z,7.97
2023-02-17T10:12:41.284Z,8.00
2023-02-17T10:15:16.074Z,7.53
2023-02-17T10:17:49.554Z,5.95
2023-02-17T10:20:22.083Z,7.30
2023-02-17T10:22:55.940Z,9.60
2023-02-17T10:25:40.496Z,7.20
2023-02-17T10:28:11.599Z,6.68
2023-02-17T10:30:45.941Z,7.00
2023-02-17T10:33:19.149Z,6.70
2023-02-17T10:35:52.312Z,7.05
2023-02-17T10:38:37.799Z,7.03
2023-02-17T10:41:10.859Z,7.93
2023-02-17T10:43:38.857Z,7.35
2023-02-17T10:46:09.333Z,7.10
2023-02-17T10:48:41.442Z,7.82
2023-02-17T10:51:14.568Z,6.78
2023-02-17T10:53:47.136Z,7.22
2023-02-17T10:56:19.594Z,7.53
2023-02-17T10:58:53.534Z,7.38
2023-02-17T11:01:23.319Z,6.80
2023-02-17T11:04:01.614Z,8.80
2023-02-17T11:06:30.941Z,9.50
2023-02-17T11:09:04.170Z,9.20
2023-02-17T11:11:35.672Z,9.90
2023-02-17T11:14:13.281Z,8.02
2023-02-17T11:16:44.468Z,7.68
2023-02-17T11:19:25.012Z,8.45
2023-02-17T11:21:54.618Z,8.23
2023-02-17T11:24:24.647Z,7.57
2023-02-17T11:26:58.382Z,9.02
2023-02-17T11:29:26.923Z,7.65
2023-02-17T11:31:56.939Z,9.93
2023-02-17T11:34:28.453Z,9.35
2023-02-17T11:37:01.732Z,8.60
2023-02-17T11:39:31.424Z,9.60
2023-02-17T11:41:59.336Z,9.60
2023-02-17T11:44:28.887Z,10.18
2023-02-17T11:47:05.508Z,10.90
2023-02-17T11:49:59.757Z,10.65
2023-02-17T11:52:39.728Z,11.20
2023-02-17T11:55:19.308Z,11.05
2023-02-17T11:57:59.822Z,12.90
2023-02-17T12:00:34.258Z,11.43
2023-02-17T12:03:46.926Z,14.15
2023-02-17T12:06:25.195Z,13.38
2023-02-17T12:09:05.288Z,13.77
2023-02-17T12:11:46.232Z,14.50
2023-02-17T12:14:31.373Z,14.80
2023-02-17T12:17:07.455Z,14.88
2023-02-17T12:19:47.077Z,14.82
2023-02-17T12:22:19.384Z,22.67
2023-02-17T12:25:23.717Z,17.02
2023-02-17T12:28:04.509Z,16.00
2023-02-17T12:30:46.307Z,17.27
2023-02-17T12:33:35.239Z,16.17
2023-02-17T12:36:06.405Z,17.70
2023-02-17T12:38:37.891Z,18.92
2023-02-17T12:41:11.648Z,18.90
2023-02-17T12:43:44.332Z,21.93
2023-02-17T12:46:16.385Z,19.90
2023-02-17T12:48:49.711Z,21.00
2023-02-17T12:51:23.245Z,20.13
2023-02-17T12:53:55.719Z,20.20
2023-02-17T12:56:38.509Z,21.88
2023-02-17T12:59:17.018Z,20.92
2023-02-17T13:01:51.770Z,21.47
2023-02-17T13:04:24.686Z,22.40
2023-02-17T13:06:59.633Z,22.38
2023-02-17T13:09:33.244Z,21.23
2023-02-17T13:12:31.017Z,24.27
2023-02-17T13:15:02.074Z,23.30
2023-02-17T13:17:32.119Z,25.00
2023-02-17T13:20:28.560Z,25.15
2023-02-17T13:23:08.507Z,24.93
2023-02-17T13:25:37.896Z,20.77
2023-02-17T13:28:35.928Z,21.30
2023-02-17T13:31:17.468Z,22.67
2023-02-17T13:33:52.108Z,22.70
2023-02-17T13:36:24.012Z,22.27
2023-02-17T13:38:59.964Z,22.97
2023-02-17T13:41:28.900Z,24.83
2023-02-17T13:43:56.904Z,21.73
2023-02-17T13:46:27.692Z,20.80
2023-02-17T13:49:04.687Z,18.80
2023-02-17T13:51:34.103Z,19.27
2023-02-17T13:54:09.332Z,18.43
2023-02-17T13:56:37.280Z,18.07
2023-02-17T13:59:09.703Z,16.00
2023-02-17T14:01:42.701Z,12.57
2023-02-17T14:04:21.860Z,12.90
2023-02-17T14:06:50.842Z,13.20
2023-02-17T14:09:23.873Z,12.43
2023-02-17T14:11:53.204Z,13.33
2023-02-17T14:14:22.836Z,11.83
2023-02-17T14:17:00.839Z,14.67
2023-02-17T14:19:29.250Z,14.77
2023-02-17T14:22:02.998Z,14.50
2023-02-17T14:24:33.353Z,14.80
2023-02-17T14:27:03.393Z,14.47
2023-02-17T14:29:42.714Z,13.93
2023-02-17T14:32:34.427Z,14.93
2023-02-17T14:35:10.513Z,14.60
2023-02-17T14:37:39.308Z,14.50
2023-02-17T14:40:16.319Z,16.30
2023-02-17T14:42:44.492Z,16.07
2023-02-17T14:45:12.442Z,15.40
2023-02-17T14:47:41.726Z,16.33
2023-02-17T14:50:10.488Z,15.83
2023-02-17T14:52:42.903Z,16.47
2023-02-17T14:55:17.719Z,16.03
2023-02-17T14:57:45.852Z,15.40
2023-02-17T15:00:16.461Z,16.17
2023-02-17T15:02:45.886Z,16.87
2023-02-17T15:05:13.727Z,17.60
2023-02-17T15:07:42.360Z,16.60
2023-02-17T15:10:18.997Z,17.17
2023-02-17T15:12:47.100Z,17.27
2023-02-17T15:15:16.123Z,16.97
2023-02-17T15:17:46.008Z,16.43
2023-02-17T15:20:15.588Z,17.47
2023-02-17T15:22:44.718Z,17.63
2023-02-17T15:25:17.104Z,16.13
2023-02-17T15:27:45.276Z,14.70
2023-02-17T15:30:15.754Z,16.60
2023-02-17T15:32:46.139Z,14.07
2023-02-17T15:35:22.810Z,14.83
2023-02-17T15:37:51.524Z,14.50
2023-02-17T15:40:24.791Z,14.93
2023-02-17T15:42:56.605Z,13.67
2023-02-17T15:45:25.784Z,13.43
2023-02-17T15:48:05.662Z,13.03
2023-02-17T15:50:33.683Z,12.47
2023-02-17T15:53:01.562Z,13.10
2023-02-17T15:55:29.886Z,12.30
2023-02-17T15:58:00.212Z,12.13
2023-02-17T16:00:30.782Z,12.43
2023-02-17T16:03:00.122Z,12.30
2023-02-17T16:05:30.011Z,12.10
2023-02-17T16:07:58.425Z,13.63
2023-02-17T16:10:28.426Z,11.07
2023-02-17T16:12:58.433Z,11.93
2023-02-17T16:15:28.677Z,12.27
2023-02-17T16:17:57.725Z,12.60
2023-02-17T16:20:29.928Z,10.53
2023-02-17T16:22:57.787Z,10.50
2023-02-17T16:25:27.348Z,11.60
2023-02-17T16:27:56.142Z,12.33
2023-02-17T16:30:26.267Z,11.90
2023-02-17T16:32:54.294Z,11.40
2023-02-17T16:35:24.560Z,10.43
2023-02-17T16:37:58.503Z,9.50
2023-02-17T16:40:29.724Z,10.50
2023-02-17T16:42:58.364Z,11.13
2023-02-17T16:45:29.145Z,11.40
2023-02-17T16:47:59.185Z,10.70
2023-02-17T16:50:30.869Z,10.20
2023-02-17T16:53:02.467Z,10.43
2023-02-17T16:55:32.378Z,9.87
2023-02-17T16:58:00.927Z,10.03
2023-02-17T17:00:31.849Z,10.17
2023-02-17T17:03:00.622Z,9.90
2023-02-17T17:05:31.090Z,11.10
2023-02-17T17:08:00.487Z,9.05
2023-02-17T17:10:30.674Z,9.23
2023-02-17T17:12:58.703Z,8.40
2023-02-17T17:15:27.356Z,10.50
2023-02-17T17:18:00.823Z,8.10
2023-02-17T17:20:32.306Z,8.60
2023-02-17T17:23:03.234Z,8.13
2023-02-17T17:25:31.432Z,9.37
2023-02-17T17:27:59.503Z,7.73
2023-02-17T17:30:29.740Z,7.23
2023-02-17T17:32:57.633Z,7.10
2023-02-17T17:35:26.076Z,6.80
2023-02-17T17:37:54.031Z,5.73
2023-02-17T17:40:25.312Z,5.60
2023-02-17T17:42:53.514Z,4.37
2023-02-17T17:45:21.833Z,4.63
2023-02-17T17:47:49.795Z,3.83
2023-02-17T17:50:22.043Z,5.93
2023-02-17T17:52:50.167Z,4.37
2023-02-17T17:55:18.171Z,4.20
2023-02-17T17:57:48.208Z,4.00
2023-02-17T18:00:18.433Z,3.40
2023-02-17T18:02:46.355Z,3.10
2023-02-17T18:05:14.435Z,3.40
2023-02-17T18:07:43.825Z,4.20
2023-02-17T18:10:14.305Z,5.53
2023-02-17T18:12:43.777Z,3.20
2023-02-17T18:15:13.472Z,3.20
2023-02-17T18:17:43.160Z,3.42
2023-02-17T18:20:12.798Z,4.32
2023-02-17T18:22:40.904Z,2.90
2023-02-17T18:25:09.367Z,2.87
2023-02-17T18:27:41.661Z,3.13
2023-02-17T18:30:10.783Z,2.92
2023-02-17T18:32:40.091Z,2.93
2023-02-17T18:35:09.111Z,2.83
2023-02-17T18:37:37.313Z,3.07
2023-02-17T18:40:05.957Z,2.85
2023-02-17T18:42:34.625Z,2.83
2023-02-17T18:45:02.429Z,2.95
2023-02-17T18:47:31.127Z,2.77
2023-02-17T18:50:00.510Z,3.20
2023-02-17T18:52:28.459Z,3.50
2023-02-17T18:54:56.472Z,2.42
2023-02-17T18:57:24.471Z,3.08
2023-02-17T18:59:52.316Z,2.88
2023-02-17T19:02:21.975Z,2.57
2023-02-17T19:04:50.016Z,2.53
2023-02-17T19:07:19.305Z,3.50
2023-02-17T19:09:47.527Z,2.53
2023-02-17T19:12:15.562Z,2.57
2023-02-17T19:14:45.070Z,2.70
2023-02-17T19:17:13.435Z,3.17
2023-02-17T19:19:42.956Z,2.67
2023-02-17T19:22:10.874Z,2.15
2023-02-17T19:24:41.662Z,2.75
2023-02-17T19:27:10.328Z,2.60
2023-02-17T19:29:38.203Z,2.83
2023-02-17T19:32:06.269Z,2.33
2023-02-17T19:34:35.334Z,2.70
2023-02-17T19:37:03.147Z,2.93
2023-02-17T19:39:31.325Z,2.63
2023-02-17T19:42:00.885Z,2.88
2023-02-17T19:44:28.809Z,3.00
2023-02-17T19:46:56.674Z,2.80
2023-02-17T19:49:24.712Z,2.58
2023-02-17T19:51:55.784Z,2.80
2023-02-17T19:54:24.481Z,3.10
2023-02-17T19:56:53.175Z,2.83
2023-02-17T19:59:22.329Z,3.05
2023-02-17T20:01:50.255Z,3.03
2023-02-17T20:04:18.330Z,3.70
2023-02-17T20:06:48.584Z,2.95
2023-02-17T20:09:22.504Z,3.53
2023-02-17T20:11:53.029Z,3.70
2023-02-17T20:14:23.061Z,3.78
2023-02-17T20:16:53.356Z,4.10
2023-02-17T20:19:21.600Z,4.05
2023-02-17T20:21:49.633Z,4.38
2023-02-17T20:24:17.544Z,4.55
2023-02-17T20:26:47.555Z,3.70
2023-02-17T20:29:15.791Z,4.35
2023-02-17T20:31:45.196Z,4.47
2023-02-17T20:34:27.213Z,4.68
2023-02-17T20:36:55.128Z,4.50
2023-02-17T20:39:23.812Z,4.75
2023-02-17T20:41:51.768Z,5.00
2023-02-17T20:44:19.825Z,5.15
2023-02-17T20:46:49.246Z,5.20
2023-02-17T20:49:17.361Z,5.20
2023-02-17T20:51:45.358Z,5.93
2023-02-17T20:54:13.251Z,5.70
2023-02-17T20:56:44.220Z,7.10
2023-02-17T20:59:14.099Z,8.48
2023-02-17T21:01:43.245Z,7.25
2023-02-17T21:04:14.130Z,6.93
2023-02-17T21:06:43.362Z,7.07
2023-02-17T21:09:15.641Z,6.35
2023-02-17T21:11:44.059Z,7.47
2023-02-17T21:14:12.548Z,8.05
2023-02-17T21:16:40.905Z,8.02
2023-02-17T21:19:08.920Z,8.00
2023-02-17T21:21:38.773Z,8.90
2023-02-17T21:24:06.901Z,9.20
2023-02-17T21:26:34.902Z,10.20
2023-02-17T21:29:03.566Z,10.68
2023-02-17T21:31:32.074Z,11.85
2023-02-17T21:34:00.670Z,10.60
2023-02-17T21:36:29.443Z,12.23
2023-02-17T21:38:59.161Z,12.80
2023-02-17T21:41:30.420Z,11.85
2023-02-17T21:44:15.895Z,11.40
2023-02-17T21:46:44.437Z,12.13
2023-02-17T21:49:13.410Z,11.73
2023-02-17T21:51:41.604Z,11.70
2023-02-17T21:54:11.998Z,11.82
2023-02-17T21:56:40.035Z,12.05
2023-02-17T21:59:09.164Z,12.23
2023-02-17T22:01:37.524Z,12.30
2023-02-17T22:04:05.762Z,11.07
2023-02-17T22:06:36.293Z,12.95
2023-02-17T22:09:06.247Z,12.95
2023-02-17T22:11:37.529Z,12.98
2023-02-17T22:14:10.198Z,13.05
2023-02-17T22:16:39.085Z,11.75
2023-02-17T22:19:08.830Z,13.77
2023-02-17T22:21:36.668Z,12.77
2023-02-17T22:24:04.625Z,12.77
2023-02-17T22:26:32.910Z,12.82
2023-02-17T22:29:02.299Z,14.07
2023-02-17T22:31:32.154Z,13.43
2023-02-17T22:34:02.317Z,11.65
2023-02-17T22:36:34.752Z,13.77
2023-02-17T22:39:03.958Z,13.27
2023-02-17T22:41:31.831Z,10.20
2023-02-17T22:44:03.330Z,11.85
2023-02-17T22:46:31.455Z,12.50
2023-02-17T22:48:59.530Z,11.18
2023-02-17T22:51:30.012Z,13.35
2023-02-17T22:53:58.597Z,12.95
2023-02-17T22:56:26.493Z,13.32
2023-02-17T22:58:56.605Z,13.60
2023-02-17T23:01:26.302Z,12.17
2023-02-17T23:03:55.175Z,13.13
2023-02-17T23:06:26.590Z,12.95
2023-02-17T23:08:55.232Z,11.90
2023-02-17T23:11:39.469Z,13.23
2023-02-17T23:14:08.422Z,12.52
2023-02-17T23:16:38.842Z,13.00
2023-02-17T23:19:08.476Z,13.15
2023-02-17T23:21:37.255Z,8.25
2023-02-17T23:24:05.704Z,10.55
2023-02-17T23:26:33.640Z,9.60
2023-02-17T23:29:01.585Z,10.07
2023-02-17T23:31:29.638Z,9.23
2023-02-17T23:33:59.035Z,9.40
2023-02-17T23:36:26.931Z,9.18
2023-02-17T23:38:55.691Z,9.50
2023-02-17T23:41:23.707Z,8.52
2023-02-17T23:43:51.694Z,8.75
2023-02-17T23:46:20.660Z,8.07
2023-02-17T23:48:48.843Z,7.35
2023-02-17T23:51:19.871Z,7.57
2023-02-17T23:53:48.321Z,6.25
2023-02-17T23:56:19.525Z,4.82
2023-02-17T23:58:47.612Z,4.97
